Time;durP1;ratioP1;P1;durP2;ratioP2;P2;SDS_P1;SDS_P2;PMS_P1;PMS_P2;Temp;Humidity;BMP_temperature;BMP_pressure;BME280_temperature;BME280_humidity;BME280_pressure;Samples;Min_cycle;Max_cycle;Signal;HPM_P1;HPM_P2
2024/03/02 00:00:51;;;;;;;43.60;18.90;;;;;;;-147.86;100.00;-17609.17;104805;1267;59414;-52
2024/03/02 00:03:20;;;;;;;45.30;18.10;;;;;;;-147.86;100.00;-17609.17;104850;1266;70998;-55
2024/03/02 00:05:49;;;;;;;51.50;20.10;;;;;;;-147.86;100.00;-17609.17;104857;1270;64490;-50
2024/03/02 00:08:24;;;;;;;44.70;19.30;;;;;;;-147.86;100.00;-17609.17;104852;1269;72647;-54
2024/03/02 00:10:52;;;;;;;46.00;18.90;;;;;;;-147.86;100.00;-17609.17;104968;1268;59953;-51
2024/03/02 00:13:24;;;;;;;46.50;19.00;;;;;;;-147.86;100.00;-17609.17;104903;1270;59281;-54
2024/03/02 00:15:53;;;;;;;43.20;18.40;;;;;;;-147.86;100.00;-17609.17;105142;1263;72617;-56
2024/03/02 00:18:30;;;;;;;49.90;19.70;;;;;;;-147.86;100.00;-17609.17;105141;1268;64566;-54
2024/03/02 00:20:58;;;;;;;49.60;18.70;;;;;;;-147.86;100.00;-17609.17;105189;1264;71387;-51
2024/03/02 00:23:33;;;;;;;52.20;19.90;;;;;;;-147.86;100.00;-17609.17;105125;1267;59779;-56
2024/03/02 00:26:01;;;;;;;43.50;18.90;;;;;;;-147.86;100.00;-17540.07;105171;1264;59566;-51
2024/03/02 00:28:36;;;;;;;46.40;17.80;;;;;;;-147.86;100.00;-17273.87;105065;1267;71854;-51
2024/03/02 00:31:08;;;;;;;58.90;18.90;;;;;;;-147.86;100.00;-16995.90;105176;1267;63139;-55
2024/03/02 00:33:46;;;;;;;65.40;21.50;;;;;;;-147.86;100.00;-16504.67;105134;1268;72660;-51
2024/03/02 00:36:16;;;;;;;39.90;18.20;;;;;;;-147.86;100.00;-16012.20;105165;1264;59695;-53
2024/03/02 00:38:46;;;;;;;48.60;19.50;;;;;;;-147.86;100.00;-15022.11;105174;1265;59638;-56
2024/03/02 00:41:27;;;;;;;48.60;19.60;;;;;;;-147.86;100.00;-14013.25;105177;1264;71835;-54
2024/03/02 00:44:00;;;;;;;38.90;18.90;;;;;;;-147.86;100.00;-13494.55;105182;1263;64477;-54
2024/03/02 00:46:36;;;;;;;44.30;18.90;;;;;;;-147.86;100.00;-12133.66;105159;1264;71378;-57
2024/03/02 00:49:05;;;;;;;172.50;56.90;;;;;;;-147.86;100.00;-10889.51;105141;1265;59779;-50
2024/03/02 00:51:34;;;;;;;83.60;29.70;;;;;;;-147.86;100.00;-9290.23;105140;1266;59611;-54
2024/03/02 00:54:04;;;;;;;45.60;20.10;;;;;;;-147.86;100.00;-8251.64;105137;1267;73018;-53
2024/03/02 00:56:32;;;;;;;56.70;20.50;;;;;;;-147.86;100.00;-7268.44;105156;1265;64334;-54
2024/03/02 00:59:00;;;;;;;43.30;19.00;;;;;;;-147.86;100.00;-6294.29;105169;1263;71778;-54
2024/03/02 01:01:28;;;;;;;42.20;19.00;;;;;;;-147.86;100.00;-5337.27;105130;1264;59756;-56
2024/03/02 01:03:56;;;;;;;45.50;19.00;;;;;;;-147.86;100.00;-4293.74;105125;1267;59701;-55
2024/03/02 01:06:24;;;;;;;52.30;19.30;;;;;;;-147.86;100.00;-3065.37;105116;1263;71843;-51
2024/03/02 01:08:53;;;;;;;43.50;19.00;;;;;;;-147.86;100.00;-1932.97;105178;1263;64493;-52
2024/03/02 01:11:24;;;;;;;48.40;20.90;;;;;;;-147.86;100.00;-702.31;105138;1263;72180;-53
2024/03/02 01:13:52;;;;;;;62.90;20.90;;;;;;;-147.86;100.00;184.11;105151;1264;59759;-53
2024/03/02 01:16:21;;;;;;;49.40;20.10;;;;;;;-147.86;100.00;1524.68;105123;1267;59637;-54
2024/03/02 01:18:48;;;;;;;44.80;19.10;;;;;;;-147.86;100.00;2632.05;105157;1263;71924;-52
2024/03/02 01:21:17;;;;;;;66.80;20.90;;;;;;;-147.86;100.00;3533.52;105225;1261;63665;-54
2024/03/02 01:23:45;;;;;;;52.00;21.00;;;;;;;-147.86;100.00;4366.60;105265;1259;72696;-51
2024/03/02 01:26:13;;;;;;;50.70;20.80;;;;;;;-147.86;100.00;5232.42;105225;1260;60822;-51
2024/03/02 01:28:40;;;;;;;62.20;21.80;;;;;;;-147.86;100.00;5978.97;105275;1263;59720;-55
2024/03/02 01:31:08;;;;;;;54.10;21.20;;;;;;;-147.86;100.00;6687.27;105247;1261;71854;-53
2024/03/02 01:33:36;;;;;;;60.90;20.40;;;;;;;-147.86;100.00;7396.10;105275;1259;62145;-55
2024/03/02 01:36:05;;;;;;;50.00;20.30;;;;;;;-147.86;100.00;8147.33;105270;1260;71461;-50
2024/03/02 01:38:34;;;;;;;46.80;18.40;;;;;;;-147.86;100.00;8720.18;105294;1260;59795;-54
2024/03/02 01:41:02;;;;;;;51.20;19.20;;;;;;;-147.86;100.00;9413.51;105324;1260;60960;-57
2024/03/02 01:43:30;;;;;;;49.60;18.40;;;;;;;-147.86;100.00;10294.40;105284;1258;71783;-51
2024/03/02 01:45:58;;;;;;;42.40;19.30;;;;;;;-147.86;100.00;11047.37;105261;1259;64478;-52
2024/03/02 01:48:26;;;;;;;46.30;17.90;;;;;;;-147.86;100.00;11515.39;105274;1260;71385;-50
2024/03/02 01:50:54;;;;;;;44.70;18.20;;;;;;;-147.86;100.00;11930.62;105260;1264;59715;-55
2024/03/02 01:53:22;;;;;;;41.00;18.70;;;;;;;-147.86;100.00;12101.14;105222;1260;59752;-54
2024/03/02 01:55:49;;;;;;;47.70;19.10;;;;;;;-147.86;100.00;12025.37;105279;1260;71845;-52
2024/03/02 01:58:17;;;;;;;40.40;18.00;;;;;;;-147.86;100.00;11708.39;105301;1264;64829;-53
2024/03/02 02:00:45;;;;;;;45.50;19.30;;;;;;;-147.86;100.00;11328.51;105245;1260;71694;-52
2024/03/02 02:03:13;;;;;;;49.70;18.40;;;;;;;-147.86;100.00;10849.65;105240;1260;59782;-54
2024/03/02 02:05:42;;;;;;;42.90;19.60;;;;;;;-147.86;100.00;10454.72;105287;1264;61319;-55
2024/03/02 02:08:10;;;;;;;44.90;19.70;;;;;;;-147.86;100.00;10085.87;105287;1260;71898;-54
2024/03/02 02:10:37;;;;;;;47.10;19.40;;;;;;;-147.86;100.00;9916.56;105310;1265;63172;-54
2024/03/02 03:03:49;;;;;;;;;;;;;;;-147.86;100.00;15414.36;103725;1280;600102;-53
2024/03/02 03:06:18;;;;;;;62.80;23.80;;;;;;;-147.86;100.00;11128.52;105028;1269;59248;-52
2024/03/02 03:08:45;;;;;;;67.40;25.10;;;;;;;-147.86;100.00;13339.52;104830;1270;59458;-52
2024/03/02 03:11:14;;;;;;;55.00;22.80;;;;;;;-147.86;100.00;14842.13;104843;1266;71064;-53
2024/03/02 03:13:42;;;;;;;55.40;24.30;;;;;;;-147.86;100.00;16083.66;104887;1266;63217;-52
2024/03/02 03:16:11;;;;;;;51.60;22.10;;;;;;;-147.86;100.00;17419.23;104914;1266;71607;-53
2024/03/02 03:18:39;;;;;;;52.90;22.10;;;;;;;-147.86;100.00;18399.71;105055;1263;261438;-56
2024/03/02 03:21:07;;;;;;;50.50;20.90;;;;;;;-147.86;100.00;19570.65;105216;1267;59836;-54
2024/03/02 03:23:36;;;;;;;49.90;21.80;;;;;;;-147.86;100.00;20482.32;105181;1267;72284;-52
2024/03/02 03:26:04;;;;;;;52.30;21.80;;;;;;;-147.86;100.00;21179.97;105224;1263;63187;-53
2024/03/02 03:28:32;;;;;;;47.00;20.60;;;;;;;-147.86;100.00;21593.52;105188;1267;72664;-52
2024/03/02 03:31:01;;;;;;;56.40;21.60;;;;;;;-147.86;100.00;22153.57;105172;1263;59727;-54
2024/03/02 03:33:29;;;;;;;43.80;19.50;;;;;;;-147.86;100.00;22827.82;105190;1263;60139;-55
2024/03/02 03:35:56;;;;;;;47.90;20.20;;;;;;;-147.86;100.00;23494.74;105186;1262;72067;-50
2024/03/02 03:38:25;;;;;;;56.30;22.50;;;;;;;-147.86;100.00;24142.71;105165;1263;63504;-53
2024/03/02 03:40:52;;;;;;;45.10;20.40;;;;;;;-147.86;100.00;24567.08;105217;1263;71403;-53
2024/03/02 03:43:20;;;;;;;47.10;20.50;;;;;;;-147.86;100.00;24970.44;105212;1264;59749;-51
2024/03/02 03:45:48;;;;;;;55.60;20.60;;;;;;;-147.86;100.00;25446.77;105213;1264;59820;-55
2024/03/02 03:48:15;;;;;;;44.80;19.80;;;;;;;-147.86;100.00;26087.27;105189;1263;73002;-51
2024/03/02 03:50:43;;;;;;;47.10;20.30;;;;;;;-147.86;100.00;26675.24;105189;1261;62135;-53
2024/03/02 03:53:11;;;;;;;54.90;20.60;;;;;;;-147.86;100.00;27301.50;105113;1269;70605;-54
2024/03/02 03:55:39;;;;;;;52.60;20.00;;;;;;;-147.86;100.00;27791.74;105134;1263;59699;-54
2024/03/02 03:58:06;;;;;;;52.00;21.80;;;;;;;-147.86;100.00;28177.89;105057;1268;60411;-52
2024/03/02 04:00:34;;;;;;;40.10;19.90;;;;;;;-147.86;100.00;28477.08;105055;1263;72304;-54
2024/03/02 04:03:02;;;;;;;52.80;21.20;;;;;;;-147.86;100.00;28863.71;105142;1263;63288;-54
2024/03/02 04:05:30;;;;;;;45.40;20.10;;;;;;;-147.86;100.00;29261.67;105166;1266;71392;-52
2024/03/02 04:07:57;;;;;;;45.30;20.90;;;;;;;-147.86;100.00;29616.36;105073;1269;59856;-49
2024/03/02 04:10:25;;;;;;;50.60;20.70;;;;;;;-147.86;100.00;29941.42;105149;1263;59804;-53
2024/03/02 04:12:53;;;;;;;59.80;23.40;;;;;;;-147.86;100.00;30156.06;105118;1262;71813;-50
2024/03/02 04:15:22;;;;;;;53.40;19.70;;;;;;;-147.86;100.00;30262.61;105194;1268;63108;-54
2024/03/02 04:17:50;;;;;;;46.30;19.80;;;;;;;-147.86;100.00;30359.44;105157;1268;72648;-53
2024/03/02 04:20:18;;;;;;;46.40;19.50;;;;;;;-147.86;100.00;30732.94;105114;1267;59762;-53
2024/03/02 04:22:46;;;;;;;46.60;20.20;;;;;;;-147.86;100.00;31195.12;105114;1263;60628;-56
2024/03/02 04:25:14;;;;;;;56.90;19.70;;;;;;;-147.86;100.00;31604.25;105152;1264;70866;-54
2024/03/02 04:27:42;;;;;;;45.20;19.30;;;;;;;-147.86;100.00;31892.38;105217;1263;63217;-53
2024/03/02 04:30:10;;;;;;;46.20;18.70;;;;;;;-147.86;100.00;32114.96;105106;1264;71362;-56
2024/03/02 04:32:39;;;;;;;40.60;18.30;;;;;;;-147.86;100.00;32354.71;105157;1263;59650;-54
2024/03/02 04:35:10;;;;;;;40.60;18.00;;;;;;;-147.86;100.00;32499.97;105136;1268;59551;-53
2024/03/02 04:37:37;;;;;;;50.30;19.60;;;;;;;-147.86;100.00;32434.03;105096;1268;72165;-54
2024/03/02 04:40:08;;;;;;;41.80;17.30;;;;;;;-147.86;100.00;32743.25;105099;1263;63258;-47
2024/03/02 04:42:36;;;;;;;39.90;18.40;;;;;;;-147.86;100.00;32710.52;105167;1264;72608;-54
2024/03/02 04:45:04;;;;;;;74.70;19.00;;;;;;;-147.86;100.00;33086.55;105177;1268;59682;-56
2024/03/02 04:47:32;;;;;;;49.60;18.10;;;;;;;-147.86;100.00;33149.82;105210;1268;59637;-53
2024/03/02 04:50:00;;;;;;;40.60;18.60;;;;;;;-147.86;100.00;33213.48;105150;1265;70829;-52
2024/03/02 04:52:28;;;;;;;48.60;18.80;;;;;;;-147.86;100.00;33249.41;105137;1268;64102;-55
2024/03/02 04:57:44;;;;;;;59.00;19.10;;;;;;;-147.86;100.00;32086.94;105126;1263;59696;-53
2024/03/02 05:00:12;;;;;;;47.50;19.80;;;;;;;-147.86;100.00;33150.63;105162;1263;60068;-54
2024/03/02 05:02:40;;;;;;;51.30;19.10;;;;;;;-147.86;100.00;33302.55;105141;1263;73063;-54
2024/03/02 05:05:08;;;;;;;53.50;19.10;;;;;;;-147.86;100.00;33408.38;105111;1268;64427;-52
2024/03/02 05:07:35;;;;;;;52.20;17.70;;;;;;;-147.86;100.00;33447.05;105144;1268;71409;-54
2024/03/02 05:10:03;;;;;;;49.40;19.10;;;;;;;-147.86;100.00;33503.30;105113;1266;59913;-56
2024/03/02 05:12:56;;;;;;;55.50;19.40;;;;;;;-147.86;100.00;33504.48;105268;1265;59650;-56
2024/03/02 05:15:25;;;;;;;51.70;18.80;;;;;;;-147.86;100.00;31797.89;105244;1266;71774;-52
2024/03/02 05:17:53;;;;;;;48.90;18.60;;;;;;;-147.86;100.00;33261.15;105255;1260;63300;-57
2024/03/02 05:20:21;;;;;;;55.90;20.00;;;;;;;-147.86;100.00;33354.49;105186;1265;70704;-51
2024/03/02 05:22:49;;;;;;;55.40;18.10;;;;;;;-147.86;100.00;33436.51;105204;1265;59732;-53
2024/03/02 05:25:18;;;;;;;50.50;19.00;;;;;;;-147.86;100.00;33404.11;105259;1265;59667;-53
2024/03/02 05:27:46;;;;;;;55.20;18.70;;;;;;;-147.86;100.00;33493.15;105244;1265;73038;-55
2024/03/02 05:30:14;;;;;;;43.00;17.60;;;;;;;-147.86;100.00;33517.76;105336;1261;63413;-50
2024/03/02 05:32:42;;;;;;;32.80;16.30;;;;;;;-147.86;100.00;33525.97;105243;1265;70399;-54
2024/03/02 05:35:12;;;;;;;35.20;16.80;;;;;;;-147.86;100.00;33575.57;105206;1265;60918;-54
2024/03/02 05:37:40;;;;;;;48.60;16.80;;;;;;;-147.86;100.00;33436.17;105265;1265;59589;-54
2024/03/02 05:40:08;;;;;;;43.40;16.60;;;;;;;-147.86;100.00;33525.18;105215;1260;72989;-50
2024/03/02 05:42:36;;;;;;;43.10;20.30;;;;;;;-147.86;100.00;33379.09;105265;1260;63198;-52
2024/03/02 05:45:05;;;;;;;36.40;15.30;;;;;;;-147.86;100.00;33157.25;105244;1263;71382;-54
2024/03/02 05:47:33;;;;;;;34.60;15.60;;;;;;;-147.86;100.00;32970.16;105248;1260;60814;-53
2024/03/02 05:50:01;;;;;;;42.10;15.70;;;;;;;-147.86;100.00;32819.39;105232;1261;60015;-55
2024/03/02 05:52:29;;;;;;;40.10;16.30;;;;;;;-147.86;100.00;32608.51;105227;1266;72187;-56
2024/03/02 05:54:57;;;;;;;42.70;16.50;;;;;;;-147.86;100.00;32411.71;105266;1260;62242;-56
2024/03/02 05:57:47;;;;;;;36.90;16.10;;;;;;;-147.86;100.00;32267.61;105838;1253;71365;-51
2024/03/02 06:00:16;;;;;;;33.70;14.80;;;;;;;-147.86;100.00;30357.81;105916;1257;59698;-55
2024/03/02 06:02:45;;;;;;;32.20;12.90;;;;;;;-147.86;100.00;31419.63;105855;1254;60022;-53
2024/03/02 06:05:14;;;;;;;33.70;13.50;;;;;;;-147.86;100.00;31324.32;105903;1255;72991;-53
2024/03/02 06:07:43;;;;;;;28.80;13.80;;;;;;;-147.86;100.00;30796.17;105855;1254;62880;-53
2024/03/02 06:10:11;;;;;;;32.70;13.80;;;;;;;-147.86;100.00;30300.84;105881;1257;71748;-51
2024/03/02 06:12:41;;;;;;;26.50;12.80;;;;;;;-147.86;100.00;29555.12;105895;1253;59696;-49
2024/03/02 06:15:09;;;;;;;40.30;13.50;;;;;;;-147.86;100.00;29087.22;105866;1258;59577;-49
2024/03/02 06:17:37;;;;;;;28.70;12.40;;;;;;;-147.86;100.00;28049.89;105863;1256;73069;-55
2024/03/02 06:20:07;;;;;;;31.80;12.60;;;;;;;-147.86;100.00;26677.47;105841;1257;64187;-52
2024/03/02 06:22:36;;;;;;;36.60;13.70;;;;;;;-147.86;100.00;24943.19;105869;1258;71389;-49
2024/03/02 06:25:04;;;;;;;29.60;13.70;;;;;;;-147.86;100.00;24173.05;105869;1259;59650;-55
2024/03/02 06:27:32;;;;;;;33.60;14.30;;;;;;;-147.86;100.00;23308.84;105755;1261;59700;-53
2024/03/02 06:29:59;;;;;;;33.10;12.80;;;;;;;-147.86;100.00;22367.30;105846;1256;72942;-54
2024/03/02 06:32:27;;;;;;;45.10;13.80;;;;;;;-147.86;100.00;21669.42;105683;1259;64393;-49
2024/03/02 06:34:55;;;;;;;32.50;13.10;;;;;;;-147.86;100.00;21239.92;105839;1258;72672;-54
2024/03/02 06:37:22;;;;;;;29.40;12.70;;;;;;;-147.86;100.00;20782.02;105863;1253;59646;-55
2024/03/02 06:39:50;;;;;;;34.40;12.50;;;;;;;-147.86;100.00;19825.50;105859;1253;59621;-56
2024/03/02 06:42:18;;;;;;;36.90;14.20;;;;;;;-147.86;100.00;18559.09;105830;1258;73055;-54
2024/03/02 06:44:46;;;;;;;25.90;11.20;;;;;;;-147.86;100.00;17569.32;105858;1259;64355;-50
2024/03/02 06:47:16;;;;;;;29.10;11.90;;;;;;;-147.86;100.00;16753.99;105883;1256;71455;-55
2024/03/02 06:49:44;;;;;;;34.30;13.20;;;;;;;-147.86;100.00;15261.93;105907;1257;59631;-54
2024/03/02 06:52:11;;;;;;;33.90;14.60;;;;;;;-147.86;100.00;14364.66;105844;1259;59691;-56
2024/03/02 06:54:40;;;;;;;31.50;12.10;;;;;;;-147.86;100.00;13370.09;105910;1257;71864;-54
2024/03/02 06:57:08;;;;;;;28.30;11.80;;;;;;;-147.86;100.00;12516.05;105824;1252;62141;-56
2024/03/02 06:59:36;;;;;;;34.00;13.60;;;;;;;-147.86;100.00;11802.02;105887;1256;71445;-54
2024/03/02 07:02:03;;;;;;;35.40;12.40;;;;;;;-147.86;100.00;10944.80;105857;1257;59723;-51
2024/03/02 07:04:32;;;;;;;38.70;11.50;;;;;;;-147.86;100.00;9855.60;105909;1256;60950;-54
2024/03/02 07:06:59;;;;;;;36.40;11.70;;;;;;;-147.86;100.00;8574.56;105828;1257;73026;-50
2024/03/02 07:09:27;;;;;;;29.50;11.30;;;;;;;-147.86;100.00;6955.26;105816;1258;63200;-52
2024/03/02 07:11:55;;;;;;;30.30;11.50;;;;;;;-147.86;100.00;5297.48;105859;1258;71455;-54
2024/03/02 07:14:53;;;;;;;25.80;11.40;;;;;;;-147.86;100.00;4095.92;105855;1255;60553;-54
2024/03/02 07:17:11;;;;;;;25.10;12.20;;;;;;;-147.86;100.00;840.28;105885;1259;60334;-55
2024/03/02 07:19:39;;;;;;;25.80;11.10;;;;;;;-147.86;100.00;764.56;105869;1257;73802;-55
2024/03/02 07:22:08;;;;;;;30.90;11.40;;;;;;;-147.86;100.00;-168.04;105858;1257;63108;-54
2024/03/02 07:24:45;;;;;;;31.90;11.80;;;;;;;-147.86;100.00;-1062.46;105826;1254;71067;-56
2024/03/02 07:27:13;;;;;;;29.30;11.10;;;;;;;-147.86;100.00;-2748.07;105879;1265;60572;-53
2024/03/02 07:29:41;;;;;;;30.90;11.30;;;;;;;-147.86;100.00;-2775.60;105636;1253;60441;-53
2024/03/02 07:32:09;;;;;;;26.60;11.10;;;;;;;-147.86;100.00;-3262.02;105923;1256;71543;-51
2024/03/02 07:34:38;;;;;;;35.40;10.30;;;;;;;-147.86;100.00;-4279.53;105904;1257;63245;-54
2024/03/02 07:37:05;;;;;;;27.50;10.70;;;;;;;-147.86;100.00;-5644.79;105888;1258;71566;-54
2024/03/02 07:39:33;;;;;;;24.30;11.00;;;;;;;-147.86;100.00;-6601.73;105842;1257;60521;-54
2024/03/02 07:42:03;;;;;;;38.70;11.80;;;;;;;-147.86;100.00;-7544.90;105869;1259;60496;-53
2024/03/02 07:44:31;;;;;;;32.40;14.60;;;;;;;-147.86;100.00;-8736.68;105809;1259;72558;-54
2024/03/02 07:46:59;;;;;;;28.50;12.00;;;;;;;-147.86;100.00;-9969.81;105983;1257;63297;-54
2024/03/02 07:49:27;;;;;;;26.10;10.60;;;;;;;-147.86;100.00;-11420.31;105879;1257;72751;-54
2024/03/02 07:51:55;;;;;;;30.60;11.60;;;;;;;-147.86;100.00;-13622.82;105872;1255;60564;-49
2024/03/02 07:54:23;;;;;;;20.80;10.00;;;;;;;-147.86;100.00;-15667.47;105898;1258;60447;-50
2024/03/02 07:56:51;;;;;;;32.70;12.00;;;;;;;-147.86;100.00;-16917.64;105874;1256;73890;-54
2024/03/02 07:59:19;;;;;;;26.70;10.70;;;;;;;-147.86;100.00;-17533.71;105815;1252;63737;-53
2024/03/02 08:01:47;;;;;;;26.30;10.40;;;;;;;-147.86;100.00;-17609.17;105847;1257;71539;-51
2024/03/02 09:01:51;;;;;;;24.40;11.10;;;;;;;-147.86;100.00;-17609.17;102697;1290;600317;-52
2024/03/02 09:04:19;;;;;;;29.00;10.80;;;;;;;-147.86;100.00;-17609.17;105051;1264;59258;-54
2024/03/02 09:06:49;;;;;;;33.70;12.40;;;;;;;-147.86;100.00;-17609.17;104880;1265;59332;-52
2024/03/02 09:09:17;;;;;;;36.60;10.90;;;;;;;-147.86;100.00;-17609.17;104859;1267;72289;-52
2024/03/02 09:11:46;;;;;;;50.20;17.20;;;;;;;-147.86;100.00;-17609.17;104875;1265;64512;-52
2024/03/02 09:14:14;;;;;;;28.90;10.50;;;;;;;-147.86;100.00;-17609.17;104916;1266;71595;-55
2024/03/02 09:16:43;;;;;;;28.80;10.50;;;;;;;-147.86;100.00;-17609.17;104974;1265;60023;-52
2024/03/02 09:19:11;;;;;;;35.40;10.20;;;;;;;-147.86;100.00;-17609.17;105164;1267;59302;-51
2024/03/02 09:21:39;;;;;;;25.80;9.30;;;;;;;-147.86;100.00;-17609.17;105208;1263;70922;-47
2024/03/02 09:24:08;;;;;;;22.80;8.50;;;;;;;-147.86;100.00;-17609.17;105162;1267;64499;-53
2024/03/02 09:26:36;;;;;;;20.70;8.30;;;;;;;-147.86;100.00;-17609.17;105117;1263;71342;-50
2024/03/02 09:29:04;;;;;;;29.30;8.50;;;;;;;-147.86;100.00;-17609.17;105188;1264;59772;-55
2024/03/02 09:31:31;;;;;;;24.60;8.00;;;;;;;-147.86;100.00;-17609.17;105188;1267;59643;-55
2024/03/02 09:34:00;;;;;;;28.60;8.70;;;;;;;-147.86;100.00;-17609.17;105227;1266;75144;-52
2024/03/02 09:36:28;;;;;;;25.40;9.10;;;;;;;-147.86;100.00;-17609.17;105131;1267;66378;-51
2024/03/02 09:38:56;;;;;;;22.60;8.40;;;;;;;-147.86;100.00;-17609.17;105112;1267;72607;-49
2024/03/02 09:41:24;;;;;;;32.10;9.10;;;;;;;-147.86;100.00;-17609.17;105142;1262;59648;-54
2024/03/02 09:43:52;;;;;;;21.40;8.10;;;;;;;-147.86;100.00;-17609.17;105184;1268;61071;-51
2024/03/02 09:46:19;;;;;;;36.30;8.80;;;;;;;-147.86;100.00;-17608.88;105150;1263;71825;-54
2024/03/02 09:48:48;;;;;;;29.90;7.90;;;;;;;-147.86;100.00;-16423.31;105185;1263;63110;-54
2024/03/02 09:51:19;;;;;;;37.70;10.50;;;;;;;-147.86;99.69;-14102.33;105156;1263;71345;-52
2024/03/02 09:53:47;;;;;;;24.70;9.50;;;;;;;-147.86;96.54;-1386.90;105079;1267;60961;-52
2024/03/02 09:56:18;;;;;;;22.10;8.00;;;;;;;-147.86;95.14;13406.19;105105;1263;60867;-54
2024/03/02 09:58:47;;;;;;;16.70;6.90;;;;;;;-147.86;93.68;25682.29;105093;1265;73019;-51
2024/03/02 10:01:15;;;;;;;35.10;8.40;;;;;;;-147.86;91.69;40462.29;105129;1268;64696;-51
2024/03/02 10:03:45;;;;;;;25.20;7.60;;;;;;;-147.86;91.73;42732.45;105149;1264;71445;-55
2024/03/02 10:06:24;;;;;;;31.10;8.50;;;;;;;-147.86;91.98;42860.46;105109;1268;59705;-51
2024/03/02 10:08:52;;;;;;;25.70;8.40;;;;;;;-147.86;90.89;44018.06;105045;1268;59962;-54
2024/03/02 10:11:35;;;;;;;40.50;18.20;;;;;;;-147.86;90.70;44591.86;105057;1268;70839;-51
2024/03/02 10:14:13;;;;;;;39.20;14.90;;;;;;;-147.86;89.44;45278.98;105062;1264;64623;-53
2024/03/02 10:16:43;;;;;;;44.50;15.80;;;;;;;-147.86;89.45;45491.33;105103;1264;74652;-54
2024/03/02 10:19:21;;;;;;;44.90;14.70;;;;;;;-147.86;88.60;45680.57;105059;1268;59605;-54
2024/03/02 10:21:54;;;;;;;44.40;11.60;;;;;;;-147.86;89.80;45615.93;105129;1264;60086;-51
2024/03/02 10:24:22;;;;;;;39.20;11.20;;;;;;;-147.86;87.55;45785.98;105129;1264;71957;-55
2024/03/02 10:26:52;;;;;;;28.90;9.30;;;;;;;-147.86;85.53;45913.71;105662;1252;64514;-58
2024/03/02 10:29:20;;;;;;;27.30;8.50;;;;;;;-147.86;85.52;45945.46;105893;1257;72783;-53
2024/03/02 10:31:47;;;;;;;29.10;8.70;;;;;;;-147.86;85.19;45965.05;105750;1253;59653;-50
2024/03/02 10:34:18;;;;;;;36.40;18.60;;;;;;;-147.86;84.89;45963.88;105813;1253;60107;-55
2024/03/02 10:36:46;;;;;;;30.60;6.80;;;;;;;-147.86;84.97;45985.42;105844;1257;73972;-52
2024/03/02 10:39:14;;;;;;;30.30;10.70;;;;;;;-147.86;83.36;45996.40;105687;1257;64757;-54
2024/03/02 10:41:42;;;;;;;40.10;11.00;;;;;;;-147.86;78.86;46008.15;105713;1253;72569;-54
2024/03/02 10:44:09;;;;;;;41.80;15.70;;;;;;;-147.86;79.50;46008.94;105704;1257;59748;-49
2024/03/02 10:46:38;;;;;;;34.40;8.90;;;;;;;-147.86;80.79;46027.75;105762;1254;59584;-55
2024/03/02 10:49:06;;;;;;;45.40;16.00;;;;;;;-147.86;81.04;46066.54;105730;1253;72734;-53
2024/03/02 10:51:36;;;;;;;30.10;7.80;;;;;;;-147.86;75.82;46058.71;105841;1254;63125;-54
2024/03/02 10:54:06;;;;;;;39.10;7.40;;;;;;;-147.86;74.28;46095.93;105752;1257;74576;-54
2024/03/02 10:56:36;;;;;;;36.50;5.90;;;;;;;-147.86;72.94;46111.61;105845;1257;60714;-51
2024/03/02 10:59:20;;;;;;;26.00;6.60;;;;;;;-147.86;71.70;46125.32;105833;1257;59852;-54
2024/03/02 11:01:48;;;;;;;31.00;6.80;;;;;;;-147.86;73.88;46161.76;105716;1254;73115;-52
2024/03/02 11:04:18;;;;;;;33.60;6.10;;;;;;;-147.86;75.12;46186.84;105680;1253;63474;-55
2024/03/02 11:06:50;;;;;;;37.60;7.50;;;;;;;-147.86;73.65;46192.72;105728;1258;73160;-54
2024/03/02 11:09:19;;;;;;;33.00;7.20;;;;;;;-147.86;74.76;46214.27;105685;1253;59836;-52
2024/03/02 11:11:55;;;;;;;24.70;6.40;;;;;;;-147.86;74.88;46224.46;105852;1257;59599;-53
2024/03/02 11:14:24;;;;;;;28.90;8.30;;;;;;;-147.86;74.29;46240.92;105828;1254;71716;-55
2024/03/02 11:16:52;;;;;;;33.50;6.70;;;;;;;-147.86;74.62;46262.87;105744;1257;64722;-54
2024/03/02 11:19:21;;;;;;;33.30;6.50;;;;;;;-147.86;72.52;46250.72;105858;1257;74510;-55
2024/03/02 11:21:49;;;;;;;33.20;7.40;;;;;;;-147.86;71.49;46302.05;105715;1253;60446;-51
2024/03/02 11:24:35;;;;;;;50.50;7.70;;;;;;;-147.86;73.01;46343.20;105755;1254;60111;-58
2024/03/02 11:27:12;;;;;;;39.80;6.40;;;;;;;-147.86;73.22;46360.84;105667;1253;73585;-55
2024/03/02 11:29:40;;;;;;;34.80;6.90;;;;;;;-147.86;72.10;46382.78;105893;1257;64428;-52
2024/03/02 11:32:20;;;;;;;36.10;7.20;;;;;;;-147.86;70.77;46400.81;105832;1257;72762;-55
2024/03/02 11:34:49;;;;;;;27.60;6.70;;;;;;;-147.86;68.96;46446.66;105878;1256;59656;-54
2024/03/02 11:37:22;;;;;;;42.50;7.50;;;;;;;-147.86;69.50;46494.48;105885;1253;61101;-53
2024/03/02 11:39:50;;;;;;;32.50;6.00;;;;;;;-147.86;69.98;46528.18;105712;1257;74918;-48
2024/03/02 11:42:18;;;;;;;42.20;7.80;;;;;;;-147.86;70.83;46543.85;105883;1257;64968;-49
2024/03/02 11:44:47;;;;;;;32.00;5.90;;;;;;;-147.86;70.73;46564.63;105667;1253;74821;-52
2024/03/02 11:47:16;;;;;;;52.30;11.10;;;;;;;-147.86;69.79;46580.70;105843;1257;59665;-53
2024/03/02 11:49:54;;;;;;;54.40;18.80;;;;;;;-147.86;69.02;46609.70;105847;1253;59737;-53
2024/03/02 11:52:22;;;;;;;123.50;52.80;;;;;;;-147.86;68.82;46640.65;105870;1258;73337;-53
2024/03/02 11:54:51;;;;;;;40.20;8.70;;;;;;;-147.86;68.05;46665.74;105704;1254;65431;-55
2024/03/02 11:57:22;;;;;;;74.90;23.30;;;;;;;-147.86;66.76;46712.38;105841;1253;71416;-51
2024/03/02 11:59:50;;;;;;;83.80;26.40;;;;;;;-147.86;65.91;46746.09;105860;1253;60041;-53
2024/03/02 12:02:21;;;;;;;65.10;17.10;;;;;;;-147.86;67.47;46788.02;105820;1252;59723;-53
2024/03/02 12:04:49;;;;;;;82.90;31.60;;;;;;;-147.86;66.94;46805.66;105821;1253;72702;-54
2024/03/02 12:07:24;;;;;;;78.20;23.70;;;;;;;-147.86;66.08;46841.32;105720;1257;66427;-56
2024/03/02 12:10:02;;;;;;;38.30;8.60;;;;;;;-147.86;68.04;46894.23;105868;1257;72882;-52
2024/03/02 12:14:23;;;;;;;78.80;26.10;;;;;;;-147.86;72.22;46875.82;102705;1292;600206;-57
2024/03/02 12:16:52;;;;;;;107.80;33.30;;;;;;;-147.86;74.90;46871.51;105101;1264;59702;-56
2024/03/02 12:19:20;;;;;;;37.80;7.40;;;;;;;-147.86;73.79;46808.01;105080;1263;59389;-54
2024/03/02 12:21:48;;;;;;;40.60;7.40;;;;;;;-147.86;71.33;46794.29;105138;1264;74445;-52
2024/03/02 12:24:17;;;;;;;41.90;9.60;;;;;;;-147.86;71.69;46817.80;104894;1263;63272;-51
2024/03/02 12:26:46;;;;;;;53.40;14.00;;;;;;;-147.86;72.70;46802.52;105037;1269;73518;-50
2024/03/02 12:29:15;;;;;;;40.10;9.30;;;;;;;-147.86;72.43;46780.57;105554;1259;232670;-49
2024/03/02 12:31:45;;;;;;;43.50;9.40;;;;;;;-147.86;72.58;46777.44;105733;1253;60043;-54
2024/03/02 12:34:14;;;;;;;42.90;9.30;;;;;;;-147.86;72.43;46771.95;105646;1253;73073;-52
2024/03/02 12:36:42;;;;;;;72.20;15.50;;;;;;;-147.86;71.67;46759.41;105695;1260;65374;-53
2024/03/02 12:39:10;;;;;;;86.40;22.20;;;;;;;-147.86;69.54;46767.64;105684;1253;72939;-54
2024/03/02 12:41:38;;;;;;;37.10;7.30;;;;;;;-147.86;64.81;46796.25;105699;1259;60095;-55
2024/03/02 12:44:06;;;;;;;106.30;27.80;;;;;;;-147.86;62.38;46894.24;105690;1253;60155;-57
2024/03/02 12:46:38;;;;;;;35.70;9.10;;;;;;;-147.86;61.77;46993.01;105627;1253;72909;-55
2024/03/02 12:49:10;;;;;;;38.70;7.00;;;;;;;-147.86;61.97;47090.99;105748;1253;66436;-55
2024/03/02 12:51:40;;;;;;;46.80;9.10;;;;;;;-147.86;63.58;47150.18;105770;1253;73239;-57